Time;durP1;ratioP1;P1;durP2;ratioP2;P2;SDS_P1;SDS_P2;PMS_P1;PMS_P2;Temp;Humidity;BMP_temperature;BMP_pressure;BME280_temperature;BME280_humidity;BME280_pressure;Samples;Min_cycle;Max_cycle;Signal;HPM_P1;HPM_P2
2022/01/03 00:03:04;;;;;;;17.63;5.97;;;;;;;9.21;100.00;100321.34;10135770;28;20050;-68
2022/01/03 00:08:03;;;;;;;18.33;5.63;;;;;;;9.11;100.00;100327.13;10134745;28;20054;-69
2022/01/03 00:13:00;;;;;;;23.05;7.50;;;;;;;9.17;100.00;100323.13;10118100;28;20576;-68
2022/01/03 00:17:57;;;;;;;17.58;7.43;;;;;;;9.08;100.00;100325.03;10127670;28;20117;-68
2022/01/03 00:23:01;;;;;;;19.92;7.50;;;;;;;8.98;100.00;100307.84;10131931;28;20430;-69
2022/01/03 00:28:14;;;;;;;14.13;5.38;;;;;;;8.90;100.00;100303.16;10142974;28;20106;-68
2022/01/03 00:33:11;;;;;;;12.70;4.22;;;;;;;8.76;100.00;100286.13;10145615;28;20046;-68
2022/01/03 00:38:10;;;;;;;10.52;3.75;;;;;;;8.63;100.00;100294.09;10143958;28;20051;-69
2022/01/03 00:43:07;;;;;;;7.18;2.72;;;;;;;8.52;100.00;100281.88;10138986;28;20077;-69
2022/01/03 00:48:08;;;;;;;10.43;1.88;;;;;;;8.40;100.00;100285.19;10133038;28;20085;-71
2022/01/03 00:53:05;;;;;;;8.00;1.70;;;;;;;8.35;100.00;100268.94;10140451;28;20079;-71
2022/01/03 00:58:18;;;;;;;7.55;1.98;;;;;;;8.31;100.00;100273.41;10136046;28;20050;-70
2022/01/03 01:03:20;;;;;;;5.75;1.40;;;;;;;8.23;100.00;100280.41;10126439;28;20054;-70
2022/01/03 01:08:21;;;;;;;5.35;1.27;;;;;;;8.15;100.00;100261.31;10134110;28;20082;-69
2022/01/03 01:13:18;;;;;;;6.80;1.60;;;;;;;8.16;100.00;100258.28;10131779;28;20153;-69
2022/01/03 01:18:15;;;;;;;4.28;1.00;;;;;;;8.17;100.00;100259.91;10133354;28;20050;-69
2022/01/03 01:23:12;;;;;;;6.10;1.65;;;;;;;8.13;100.00;100260.84;10129217;28;20113;-69
2022/01/03 01:28:12;;;;;;;5.80;1.17;;;;;;;8.04;100.00;100258.06;10147235;28;20046;-69
2022/01/03 01:33:15;;;;;;;6.25;0.90;;;;;;;8.01;100.00;100273.09;10139206;28;20142;-69
2022/01/03 01:38:16;;;;;;;;;;;;;;;7.99;100.00;100299.03;10144537;28;20112;-69
2022/01/03 01:43:14;;;;;;;7.38;1.63;;;;;;;7.90;100.00;100306.34;10131929;28;20359;-69
2022/01/03 01:48:12;;;;;;;4.72;1.25;;;;;;;7.95;100.00;100314.38;10143145;28;20137;-69
2022/01/03 01:53:09;;;;;;;4.20;1.25;;;;;;;7.86;100.00;100340.72;10141282;28;20425;-69
2022/01/03 01:58:30;;;;;;;3.03;0.90;;;;;;;7.82;100.00;100350.59;10133783;28;20086;-70
2022/01/03 02:08:44;;;;;;;3.80;0.60;;;;;;;7.61;100.00;100382.94;10869555;23;20050;-67
2022/01/03 02:13:42;;;;;;;5.25;0.93;;;;;;;7.57;100.00;100394.44;10180139;28;20147;-65
2022/01/03 02:18:40;;;;;;;3.30;1.20;;;;;;;7.51;100.00;100408.44;10149680;28;20492;-64
2022/01/03 02:23:37;;;;;;;3.83;1.05;;;;;;;7.53;100.00;100425.25;10123997;28;20416;-64
2022/01/03 02:28:33;;;;;;;4.07;1.05;;;;;;;7.53;100.00;100433.44;10137287;28;20130;-67
2022/01/03 02:33:30;;;;;;;3.75;0.80;;;;;;;7.45;100.00;100445.84;10149045;28;20464;-67
2022/01/03 02:38:27;;;;;;;3.50;0.88;;;;;;;7.37;100.00;100460.94;10166553;28;20100;-65
2022/01/03 02:43:23;;;;;;;4.13;1.00;;;;;;;7.37;100.00;100460.13;10018903;28;20051;-64
2022/01/03 02:48:23;;;;;;;3.60;0.75;;;;;;;7.44;100.00;100457.81;10076713;28;20043;-64
2022/01/03 02:53:21;;;;;;;3.65;0.85;;;;;;;7.35;100.00;100456.91;10153347;28;20101;-65
2022/01/03 02:58:17;;;;;;;4.32;0.80;;;;;;;7.40;100.00;100469.59;10156598;28;20512;-65
2022/01/03 03:03:15;;;;;;;2.30;0.70;;;;;;;7.31;100.00;100467.59;10140096;28;20046;-65
2022/01/03 03:08:13;;;;;;;3.75;1.10;;;;;;;7.38;100.00;100478.88;10141795;28;20046;-65
2022/01/03 03:13:10;;;;;;;2.30;0.50;;;;;;;7.27;100.00;100472.03;10153412;28;20047;-65
2022/01/03 03:18:06;;;;;;;6.93;1.00;;;;;;;7.29;100.00;100472.53;10140667;28;20786;-65
2022/01/03 03:23:03;;;;;;;6.88;1.35;;;;;;;7.28;100.00;100489.13;10132108;28;21453;-65
2022/01/03 03:28:03;;;;;;;8.63;1.52;;;;;;;7.33;100.00;100476.25;10128943;28;20081;-65
2022/01/03 03:33:04;;;;;;;13.27;1.70;;;;;;;7.28;100.00;100479.06;10148648;28;20491;-65
2022/01/03 03:38:01;;;;;;;11.25;2.30;;;;;;;7.27;100.00;100482.09;10131608;28;20436;-65
2022/01/03 03:42:58;;;;;;;10.98;2.90;;;;;;;7.29;100.00;100474.44;10149112;28;20121;-65
2022/01/03 03:47:57;;;;;;;13.02;2.17;;;;;;;7.32;100.00;100487.44;10135616;28;20524;-65
2022/01/03 03:52:54;;;;;;;19.27;4.78;;;;;;;7.27;100.00;100488.34;10150585;28;20464;-65
2022/01/03 03:57:51;;;;;;;12.38;2.80;;;;;;;7.30;100.00;100487.72;10142302;28;20043;-65
2022/01/03 04:02:47;;;;;;;12.50;2.55;;;;;;;7.37;100.00;100481.91;10145381;28;20048;-64
2022/01/03 04:07:44;;;;;;;11.40;2.92;;;;;;;7.40;100.00;100472.31;10147676;28;20146;-65
2022/01/03 04:12:42;;;;;;;16.55;2.58;;;;;;;7.45;100.00;100477.66;10146457;28;20034;-65
2022/01/03 04:17:38;;;;;;;15.77;2.58;;;;;;;7.46;100.00;100473.84;10142699;28;20731;-65
2022/01/03 04:22:36;;;;;;;13.88;2.50;;;;;;;7.48;100.00;100477.06;10125151;28;20068;-65
2022/01/03 04:27:32;;;;;;;15.98;2.50;;;;;;;7.51;100.00;100476.44;10135487;28;20082;-65
2022/01/03 04:32:29;;;;;;;13.23;2.22;;;;;;;7.57;100.00;100469.81;10148526;28;20124;-65
2022/01/03 04:37:25;;;;;;;16.63;2.67;;;;;;;7.53;100.00;100474.25;10141698;28;20051;-66
2022/01/03 04:42:22;;;;;;;12.68;3.15;;;;;;;7.53;100.00;100463.34;10137492;28;20129;-65
2022/01/03 04:47:18;;;;;;;13.13;2.17;;;;;;;7.56;100.00;100473.63;10133030;28;20046;-65
2022/01/03 04:52:15;;;;;;;11.13;2.40;;;;;;;7.58;100.00;100471.41;10145425;28;20051;-66
2022/01/03 04:57:12;;;;;;;12.43;3.05;;;;;;;7.58;100.00;100476.84;10151213;28;20480;-65
2022/01/03 05:02:08;;;;;;;18.70;3.08;;;;;;;7.63;100.00;100475.94;10128038;28;20046;-66
2022/01/03 05:07:05;;;;;;;15.18;2.40;;;;;;;7.63;100.00;100495.78;10146915;28;20100;-66
2022/01/03 05:12:02;;;;;;;14.93;3.10;;;;;;;7.64;100.00;100470.19;10129660;28;20046;-65
2022/01/03 05:16:59;;;;;;;19.42;3.00;;;;;;;7.63;100.00;100473.22;10130922;28;20054;-66
2022/01/03 05:21:55;;;;;;;18.58;3.28;;;;;;;7.62;100.00;100466.97;10132340;28;20047;-66
2022/01/03 05:26:52;;;;;;;17.35;3.28;;;;;;;7.66;100.00;100468.00;10133302;28;20081;-65
2022/01/03 05:31:50;;;;;;;16.90;2.65;;;;;;;7.66;100.00;100473.44;10126231;28;20460;-64
2022/01/03 05:36:47;;;;;;;18.40;2.88;;;;;;;7.65;100.00;100474.53;10136337;28;20046;-69
2022/01/03 05:41:44;;;;;;;16.20;3.08;;;;;;;7.66;100.00;100473.44;10133648;28;20141;-69
2022/01/03 05:46:40;;;;;;;16.40;3.30;;;;;;;7.67;100.00;100485.91;10154241;28;20507;-70
2022/01/03 05:51:37;;;;;;;23.30;3.65;;;;;;;7.68;100.00;100468.50;10151611;28;20058;-70
2022/01/03 05:56:34;;;;;;;18.33;3.97;;;;;;;7.68;100.00;100465.78;10141587;28;20073;-67
2022/01/03 06:01:30;;;;;;;25.08;4.13;;;;;;;7.76;100.00;100467.75;10122525;28;20133;-67
2022/01/03 06:06:53;;;;;;;26.38;4.05;;;;;;;7.74;100.00;100480.88;10125978;28;20050;-65
2022/01/03 06:11:49;;;;;;;21.85;2.85;;;;;;;7.76;100.00;100489.53;10138425;28;20105;-65
2022/01/03 06:16:46;;;;;;;18.55;2.97;;;;;;;7.76;100.00;100486.81;10130178;28;20082;-68
2022/01/03 06:21:44;;;;;;;18.52;2.88;;;;;;;7.75;100.00;100487.94;10121093;28;20211;-68
2022/01/03 06:26:42;;;;;;;16.52;2.50;;;;;;;7.77;100.00;100488.44;10116741;28;20054;-67
2022/01/03 06:31:40;;;;;;;21.48;3.35;;;;;;;7.80;100.00;100487.81;10133333;28;20401;-67
2022/01/03 06:36:36;;;;;;;24.95;3.55;;;;;;;7.79;100.00;100499.00;10128227;28;20070;-67
2022/01/03 06:41:33;;;;;;;27.10;4.28;;;;;;;7.78;100.00;100498.22;10144318;28;20181;-67
2022/01/03 06:46:30;;;;;;;23.60;4.35;;;;;;;7.78;100.00;100498.22;10137456;28;20046;-68
2022/01/03 06:51:31;;;;;;;23.33;3.50;;;;;;;7.84;100.00;100495.38;10139113;28;20141;-68
2022/01/03 06:56:27;;;;;;;25.58;3.83;;;;;;;7.86;100.00;100487.72;10079610;28;20077;-68
2022/01/03 07:01:24;;;;;;;24.30;3.67;;;;;;;7.83;100.00;100493.78;9919094;28;20052;-68
2022/01/03 07:06:21;;;;;;;27.15;3.60;;;;;;;7.83;100.00;100489.13;9978365;28;20496;-68
2022/01/03 07:11:17;;;;;;;24.50;3.63;;;;;;;7.86;100.00;100512.22;10125726;28;20088;-69
2022/01/03 07:21:31;;;;;;;32.15;4.63;;;;;;;7.84;100.00;100500.81;10136945;28;20043;-68
2022/01/03 07:26:28;;;;;;;24.23;3.60;;;;;;;7.88;100.00;100496.38;10132129;28;20046;-69
2022/01/03 07:31:24;;;;;;;30.20;3.17;;;;;;;7.88;100.00;100504.53;10148732;28;20077;-69
2022/01/03 07:36:21;;;;;;;26.05;3.60;;;;;;;7.91;100.00;100506.66;10162607;28;20104;-69
2022/01/03 07:41:18;;;;;;;29.08;3.70;;;;;;;7.87;100.00;100511.13;10126260;28;20085;-69
2022/01/03 07:46:14;;;;;;;33.17;3.78;;;;;;;7.84;100.00;100511.69;10149626;28;20046;-69
2022/01/03 07:51:12;;;;;;;26.23;3.42;;;;;;;7.88;100.00;100512.72;10137266;28;20671;-69
2022/01/03 07:56:10;;;;;;;30.38;3.97;;;;;;;7.90;100.00;100510.50;10149753;28;20121;-69
2022/01/03 08:01:06;;;;;;;26.70;3.47;;;;;;;7.86;100.00;100514.94;10136572;28;20449;-68
2022/01/03 08:06:04;;;;;;;17.80;3.70;;;;;;;7.77;100.00;100512.94;10134485;28;20042;-69
2022/01/03 08:11:00;;;;;;;23.70;3.35;;;;;;;7.71;100.00;100522.31;10135659;28;20094;-69
2022/01/03 08:15:57;;;;;;;24.08;3.45;;;;;;;7.68;100.00;100520.19;10127164;28;20047;-69
2022/01/03 08:20:53;;;;;;;27.58;3.88;;;;;;;7.73;100.00;100522.81;10129051;28;20042;-69
2022/01/03 08:25:50;;;;;;;24.95;3.70;;;;;;;7.70;100.00;100523.41;10131328;28;20519;-68
2022/01/03 08:30:46;;;;;;;33.85;5.80;;;;;;;7.68;100.00;100503.88;10136332;28;20072;-69
2022/01/03 08:35:43;;;;;;;21.98;3.28;;;;;;;7.73;100.00;100525.53;10139070;28;20074;-69
2022/01/03 08:40:40;;;;;;;37.35;6.03;;;;;;;7.75;100.00;100519.75;10126717;28;20046;-69
2022/01/03 08:45:37;;;;;;;40.78;5.55;;;;;;;7.75;100.00;100520.59;10133471;28;20089;-68
2022/01/03 08:50:36;;;;;;;26.65;4.82;;;;;;;7.79;100.00;100528.94;10129082;28;20047;-69
2022/01/03 08:55:33;;;;;;;26.92;5.07;;;;;;;7.81;100.00;100524.00;10140746;28;20559;-69
2022/01/03 09:00:30;;;;;;;31.45;4.10;;;;;;;7.85;100.00;100513.31;10103272;28;20045;-70
2022/01/03 09:05:26;;;;;;;26.02;3.97;;;;;;;7.88;100.00;100518.16;9937180;28;20595;-70
2022/01/03 09:10:23;;;;;;;28.65;4.05;;;;;;;7.89;100.00;100511.59;10129051;28;20054;-67
2022/01/03 09:15:19;;;;;;;27.10;5.00;;;;;;;8.00;100.00;100532.84;10131561;28;20051;-67
2022/01/03 09:20:16;;;;;;;27.13;4.32;;;;;;;8.01;100.00;100526.31;10132926;28;20129;-66
2022/01/03 09:30:15;;;;;;;29.45;3.58;;;;;;;7.92;100.00;100516.44;10135092;28;20038;-70
2022/01/03 09:35:12;;;;;;;25.38;3.92;;;;;;;7.96;100.00;100525.59;10140543;28;20061;-71
2022/01/03 09:40:09;;;;;;;29.13;4.15;;;;;;;8.00;100.00;100532.03;10138682;28;20138;-71
2022/01/03 09:45:08;;;;;;;19.80;3.25;;;;;;;7.90;100.00;100521.38;10138728;28;20460;-70
2022/01/03 09:50:06;;;;;;;26.45;4.22;;;;;;;7.93;100.00;100524.28;9914764;28;20530;-69
2022/01/03 09:55:04;;;;;;;27.42;4.53;;;;;;;7.86;100.00;100531.25;9902322;29;20064;-70
2022/01/03 10:00:03;;;;;;;25.30;2.97;;;;;;;7.78;100.00;100517.25;9904679;28;20491;-69
2022/01/03 10:05:00;;;;;;;29.80;4.70;;;;;;;7.85;100.00;100530.47;10136077;28;20497;-70
2022/01/03 10:09:57;;;;;;;29.50;4.68;;;;;;;7.86;100.00;100506.75;10139166;28;20271;-69
2022/01/03 10:14:53;;;;;;;28.73;4.15;;;;;;;7.85;100.00;100505.16;10139347;28;20065;-69
2022/01/03 10:20:17;;;;;;;22.90;5.45;;;;;;;7.98;100.00;100501.59;10124972;28;20046;-70
2022/01/03 10:25:19;;;;;;;27.80;4.28;;;;;;;8.01;100.00;100512.69;10125245;28;20066;-68
2022/01/03 10:30:34;;;;;;;21.15;3.30;;;;;;;8.03;100.00;100493.34;10132757;28;20480;-70
2022/01/03 10:35:37;;;;;;;27.58;3.75;;;;;;;8.06;100.00;100503.59;10141419;28;20100;-70
2022/01/03 10:40:35;;;;;;;20.35;3.63;;;;;;;8.06;100.00;100491.91;10133439;28;20042;-69
2022/01/03 10:45:33;;;;;;;24.58;4.28;;;;;;;8.06;100.00;100476.38;10144890;28;20081;-69
2022/01/03 10:50:29;;;;;;;25.60;2.83;;;;;;;8.07;100.00;100491.59;10132043;28;20078;-69
2022/01/03 10:55:33;;;;;;;20.88;4.50;;;;;;;8.32;100.00;100483.97;10130632;28;20057;-69
2022/01/03 11:00:32;;;;;;;19.77;3.70;;;;;;;8.43;100.00;100466.28;10126957;28;20055;-69
2022/01/03 11:05:39;;;;;;;28.90;4.93;;;;;;;8.33;100.00;100469.22;10125678;28;20054;-68
2022/01/03 11:10:45;;;;;;;29.90;5.53;;;;;;;8.33;100.00;100474.66;10129252;28;20042;-68
2022/01/03 11:16:03;;;;;;;22.25;3.00;;;;;;;8.45;100.00;100472.25;10130924;28;20130;-67
2022/01/03 11:21:16;;;;;;;28.23;3.42;;;;;;;8.79;100.00;100465.41;10147350;28;20049;-66
2022/01/03 11:26:20;;;;;;;29.23;3.60;;;;;;;8.75;100.00;100450.78;10138422;28;20053;-65
2022/01/03 11:31:19;;;;;;;25.55;3.80;;;;;;;8.74;100.00;100435.56;10141721;28;20101;-66
2022/01/03 11:36:18;;;;;;;32.55;4.22;;;;;;;8.82;100.00;100440.25;10131878;28;20606;-66
2022/01/03 11:41:15;;;;;;;29.30;5.60;;;;;;;8.87;100.00;100440.13;10130508;28;20377;-66
2022/01/03 11:46:12;;;;;;;23.10;3.60;;;;;;;8.95;100.00;100420.25;10139073;28;20043;-69
2022/01/03 11:51:11;;;;;;;30.45;4.88;;;;;;;9.08;100.00;100423.22;10134769;28;20034;-69
2022/01/03 11:56:15;;;;;;;20.95;3.72;;;;;;;9.14;100.00;100428.19;10138419;28;20072;-70
2022/01/03 12:06:28;;;;;;;17.70;3.10;;;;;;;9.31;100.00;100422.00;10141215;28;20126;-70
2022/01/03 12:11:28;;;;;;;24.40;3.30;;;;;;;9.18;100.00;100390.19;10139935;28;20133;-70
2022/01/03 12:16:44;;;;;;;23.95;3.80;;;;;;;8.98;100.00;100397.00;10140826;28;20047;-70
2022/01/03 12:21:47;;;;;;;26.48;3.50;;;;;;;8.99;100.00;100402.16;10133235;28;20073;-70
2022/01/03 12:27:09;;;;;;;25.38;4.38;;;;;;;9.39;100.00;100391.19;10126963;28;20153;-70
2022/01/03 12:32:06;;;;;;;22.25;3.97;;;;;;;9.70;100.00;100384.84;10130935;28;20030;-68
2022/01/03 12:37:20;;;;;;;24.52;4.00;;;;;;;9.80;100.00;100379.06;10128000;28;20129;-70
2022/01/03 12:42:45;;;;;;;25.85;3.30;;;;;;;9.83;100.00;100362.03;10129791;28;20100;-70
2022/01/03 12:47:42;;;;;;;22.65;3.65;;;;;;;9.65;100.00;100360.41;10133257;28;20050;-70
2022/01/03 12:52:41;;;;;;;23.80;3.53;;;;;;;9.42;100.00;100370.66;10131372;28;20089;-71
2022/01/03 12:57:38;;;;;;;19.40;2.83;;;;;;;9.29;100.00;100347.84;10132561;28;20053;-71
2022/01/03 13:02:35;;;;;;;24.65;3.05;;;;;;;9.34;100.00;100355.09;10134820;28;20363;-71
2022/01/03 13:07:31;;;;;;;15.65;3.47;;;;;;;9.57;100.00;100359.28;10144593;28;20038;-71
2022/01/03 13:12:28;;;;;;;32.72;5.35;;;;;;;9.46;100.00;100353.31;10141209;28;20065;-71
2022/01/03 13:17:24;;;;;;;22.95;3.25;;;;;;;9.47;100.00;100354.16;10136034;28;20058;-71
2022/01/03 13:22:26;;;;;;;22.70;3.95;;;;;;;9.35;100.00;100338.41;10133219;28;20158;-71
2022/01/03 13:27:27;;;;;;;23.75;3.05;;;;;;;9.13;100.00;100333.84;10135114;28;20474;-71
2022/01/03 13:32:27;;;;;;;25.88;3.17;;;;;;;8.93;100.00;100332.50;10127083;28;20038;-70
2022/01/03 13:37:26;;;;;;;21.85;4.05;;;;;;;8.84;100.00;100337.13;10130530;28;20120;-70
2022/01/03 13:42:34;;;;;;;20.10;4.35;;;;;;;8.71;100.00;100335.34;10137592;28;20063;-71
2022/01/03 13:52:51;;;;;;;24.17;2.90;;;;;;;8.48;100.00;100349.00;10130622;28;20101;-71
2022/01/03 13:58:17;;;;;;;20.90;3.10;;;;;;;8.36;100.00;100362.38;10121663;28;20066;-71
2022/01/03 14:03:19;;;;;;;12.05;2.22;;;;;;;8.23;100.00;100339.53;10146496;28;20530;-72
2022/01/03 14:08:19;;;;;;;16.40;2.23;;;;;;;8.30;100.00;100330.94;10140418;28;20046;-70
2022/01/03 14:13:23;;;;;;;14.13;2.95;;;;;;;8.35;100.00;100326.13;10134635;28;20561;-71
2022/01/03 14:18:48;;;;;;;15.02;2.65;;;;;;;8.39;100.00;100320.88;10144307;28;20053;-71
2022/01/03 14:23:50;;;;;;;24.20;3.35;;;;;;;8.42;100.00;100314.81;10139975;28;20092;-70
2022/01/03 14:28:47;;;;;;;17.17;4.57;;;;;;;8.48;100.00;100302.69;10144870;28;20046;-70
2022/01/03 14:33:44;;;;;;;25.45;3.90;;;;;;;8.54;100.00;100312.34;10144179;28;20065;-70
2022/01/03 14:38:43;;;;;;;22.95;4.07;;;;;;;8.60;100.00;100286.53;10140380;28;20081;-70
2022/01/03 14:43:39;;;;;;;15.93;2.83;;;;;;;8.29;100.00;100332.06;10142564;28;20093;-70
2022/01/03 14:48:37;;;;;;;22.00;2.95;;;;;;;8.10;100.00;100308.56;10134977;28;20121;-70
2022/01/03 14:53:35;;;;;;;16.10;2.50;;;;;;;8.00;100.00;100303.34;10143474;28;20643;-69
2022/01/03 14:58:32;;;;;;;19.67;2.15;;;;;;;7.98;100.00;100321.91;10134699;28;20101;-70
2022/01/03 15:03:28;;;;;;;14.25;1.73;;;;;;;8.00;100.00;100308.78;10135825;28;20062;-70
2022/01/03 15:08:27;;;;;;;21.95;3.83;;;;;;;7.95;100.00;100301.56;10141263;28;20428;-70
2022/01/03 15:13:23;;;;;;;18.48;3.05;;;;;;;7.96;100.00;100296.91;10136697;28;20097;-70
2022/01/03 15:18:20;;;;;;;19.08;2.65;;;;;;;8.00;100.00;100293.25;10148372;28;20076;-70
2022/01/03 15:23:17;;;;;;;24.33;4.53;;;;;;;8.05;100.00;100284.16;10134029;28;20078;-70
2022/01/03 15:28:13;;;;;;;22.73;2.70;;;;;;;8.11;100.00;100261.13;10132445;28;20046;-69
2022/01/03 15:33:10;;;;;;;19.27;4.07;;;;;;;8.08;100.00;100250.88;10135463;28;20093;-71
2022/01/03 15:38:07;;;;;;;19.42;3.13;;;;;;;8.11;100.00;100236.63;10137359;28;20082;-71
2022/01/03 15:43:04;;;;;;;22.75;2.63;;;;;;;8.08;100.00;100272.66;10134288;28;20042;-69
2022/01/03 15:48:01;;;;;;;11.73;2.45;;;;;;;7.68;100.00;100280.72;10144072;28;20073;-72
2022/01/03 15:52:57;;;;;;;11.82;1.48;;;;;;;6.80;100.00;100300.06;9994006;28;20065;-72
2022/01/03 15:57:54;;;;;;;22.45;2.20;;;;;;;6.51;100.00;100331.03;9908036;29;20079;-72
2022/01/03 16:02:50;;;;;;;8.43;1.50;;;;;;;5.84;100.00;100338.66;9896465;28;20092;-72
2022/01/03 16:07:47;;;;;;;14.02;3.28;;;;;;;5.82;100.00;100308.28;9885893;29;20053;-72
2022/01/03 16:12:44;;;;;;;18.65;1.77;;;;;;;5.89;100.00;100265.31;9895098;29;20061;-73
2022/01/03 16:17:40;;;;;;;10.13;1.45;;;;;;;6.02;100.00;100275.44;9913477;28;20049;-72
2022/01/03 16:22:37;;;;;;;13.68;2.90;;;;;;;6.06;100.00;100260.16;9898927;29;20049;-73
2022/01/03 16:27:34;;;;;;;13.30;2.83;;;;;;;6.25;100.00;100267.44;9886536;29;20057;-72
2022/01/03 16:32:31;;;;;;;23.65;3.60;;;;;;;6.32;100.00;100246.13;9890734;28;20116;-73
2022/01/03 16:37:28;;;;;;;14.93;2.33;;;;;;;6.35;100.00;100240.09;9885748;29;20435;-72
2022/01/03 16:42:24;;;;;;;16.73;2.78;;;;;;;6.42;100.00;100240.47;9888992;28;20049;-73
2022/01/03 16:47:22;;;;;;;15.00;2.28;;;;;;;6.49;100.00;100230.03;9905105;29;20073;-72
2022/01/03 16:52:20;;;;;;;17.55;2.50;;;;;;;6.58;100.00;100226.59;9888351;29;20041;-73
2022/01/03 16:57:17;;;;;;;13.25;2.10;;;;;;;6.59;100.00;100214.63;9895169;28;20654;-73
2022/01/03 17:02:13;;;;;;;15.93;2.75;;;;;;;6.68;100.00;100215.53;9886558;28;20096;-73
2022/01/03 17:07:10;;;;;;;17.08;3.03;;;;;;;6.77;100.00;100213.69;9888986;29;20103;-73
2022/01/03 17:12:07;;;;;;;13.52;3.35;;;;;;;6.74;100.00;100208.88;9877766;29;20104;-72
2022/01/03 17:17:04;;;;;;;15.75;2.80;;;;;;;6.77;100.00;100208.25;9885075;28;20049;-72
2022/01/03 17:22:01;;;;;;;22.58;3.72;;;;;;;6.86;100.00;100206.44;9883885;29;20069;-71
2022/01/03 17:26:57;;;;;;;23.17;3.97;;;;;;;6.85;100.00;100196.69;9981362;28;20508;-72
2022/01/03 17:32:02;;;;;;;26.50;4.47;;;;;;;6.98;100.00;100186.06;10129195;28;20660;-71
2022/01/03 17:36:59;;;;;;;27.88;4.65;;;;;;;6.92;100.00;100191.63;10141340;28;20050;-72
2022/01/03 17:41:55;;;;;;;25.15;4.95;;;;;;;7.01;100.00;100199.03;10127865;28;20069;-72
2022/01/03 17:46:53;;;;;;;26.58;3.88;;;;;;;7.04;100.00;100193.81;10131838;28;20078;-72
2022/01/03 17:51:50;;;;;;;29.80;4.03;;;;;;;7.07;100.00;100178.81;10144403;28;20042;-72
2022/01/03 17:56:46;;;;;;;23.50;3.88;;;;;;;7.12;100.00;100182.19;10140595;28;20073;-73
2022/01/03 18:02:07;;;;;;;23.17;3.55;;;;;;;7.08;100.00;100175.00;10056387;28;20064;-73
2022/01/03 18:07:05;;;;;;;26.73;4.50;;;;;;;7.15;100.00;100169.94;9937120;28;20052;-72
2022/01/03 18:12:02;;;;;;;30.35;4.03;;;;;;;7.20;100.00;100171.72;10013048;28;20089;-73
2022/01/03 18:16:59;;;;;;;18.38;3.40;;;;;;;7.20;100.00;100171.72;10148970;28;20053;-74
2022/01/03 18:21:58;;;;;;;34.55;4.30;;;;;;;7.21;100.00;100163.25;10121223;28;20085;-73
2022/01/03 18:26:55;;;;;;;21.02;3.97;;;;;;;7.26;100.00;100165.81;10144508;28;20038;-73
2022/01/03 18:31:52;;;;;;;24.25;3.78;;;;;;;7.29;100.00;100159.78;10135736;28;20066;-72
2022/01/03 18:36:49;;;;;;;22.60;4.32;;;;;;;7.30;100.00;100161.38;10132732;28;20054;-73
2022/01/03 18:41:45;;;;;;;24.95;5.05;;;;;;;7.31;100.00;100154.03;10131793;28;20046;-73
2022/01/03 18:46:42;;;;;;;19.20;3.85;;;;;;;7.28;100.00;100130.19;10141884;28;20104;-72
2022/01/03 18:51:38;;;;;;;27.23;4.18;;;;;;;7.22;100.00;100137.66;10138118;28;20056;-73
2022/01/03 18:56:35;;;;;;;28.10;3.63;;;;;;;7.16;100.00;100130.75;10137984;28;20104;-73
2022/01/03 19:01:32;;;;;;;25.77;3.92;;;;;;;7.23;100.00;100131.09;10134014;28;20051;-73
2022/01/03 19:06:29;;;;;;;22.35;3.55;;;;;;;7.27;100.00;100123.94;10132339;28;20046;-73
2022/01/03 19:11:25;;;;;;;25.25;3.63;;;;;;;7.31;100.00;100124.94;10151071;28;20050;-73
2022/01/03 19:16:23;;;;;;;17.38;3.92;;;;;;;7.34;100.00;100113.44;10148155;28;20050;-72
2022/01/03 19:21:19;;;;;;;36.63;4.43;;;;;;;7.40;100.00;100099.69;10153155;28;20038;-72
2022/01/03 19:26:19;;;;;;;24.77;4.32;;;;;;;7.39;100.00;100098.91;10154711;28;20128;-72
2022/01/03 19:31:18;;;;;;;29.63;5.00;;;;;;;7.46;100.00;100093.00;10146242;28;20058;-72
2022/01/03 19:41:35;;;;;;;27.08;4.32;;;;;;;7.41;100.00;100082.28;10146599;28;20112;-72
2022/01/03 19:46:31;;;;;;;23.90;4.47;;;;;;;7.44;100.00;100078.91;10145002;28;20097;-72
2022/01/03 19:51:28;;;;;;;20.20;4.30;;;;;;;7.40;100.00;100072.50;10087033;28;20056;-72
2022/01/03 19:56:26;;;;;;;28.52;4.22;;;;;;;7.38;100.00;100059.22;10001529;28;20464;-71
2022/01/03 20:01:26;;;;;;;22.30;3.83;;;;;;;7.35;100.00;100066.06;10149902;28;20623;-71
2022/01/03 20:06:23;;;;;;;25.88;4.20;;;;;;;7.38;100.00;100064.66;10139202;28;20046;-71
2022/01/03 20:11:19;;;;;;;20.35;3.85;;;;;;;7.36;100.00;100051.38;10147181;28;20058;-72
2022/01/03 20:16:16;;;;;;;20.90;3.95;;;;;;;7.35;100.00;100066.06;10140653;28;20053;-72
2022/01/03 20:21:14;;;;;;;32.80;6.95;;;;;;;7.36;100.00;100061.44;10138062;28;20077;-72
2022/01/03 20:26:10;;;;;;;24.02;4.63;;;;;;;7.35;100.00;100071.50;10148089;28;20042;-72
2022/01/03 20:31:07;;;;;;;30.13;6.47;;;;;;;7.37;100.00;100055.69;10142461;28;20050;-71
2022/01/03 20:36:04;;;;;;;22.70;5.95;;;;;;;7.38;100.00;100080.97;10144130;28;20059;-71
2022/01/03 20:41:01;;;;;;;19.38;5.03;;;;;;;7.37;100.00;100069.28;10104095;28;20166;-71
2022/01/03 20:45:57;;;;;;;21.45;5.07;;;;;;;7.43;100.00;100050.13;9977793;28;20440;-69
2022/01/03 20:50:54;;;;;;;19.60;4.47;;;;;;;7.35;100.00;100049.75;10135603;28;20050;-69
2022/01/03 20:55:51;;;;;;;24.63;6.53;;;;;;;7.38;100.00;100053.78;10152535;28;20504;-69
2022/01/03 21:00:48;;;;;;;25.73;5.38;;;;;;;7.39;100.00;100055.38;10120830;28;20543;-69
2022/01/03 21:05:45;;;;;;;22.67;6.55;;;;;;;7.40;100.00;100048.00;9970771;28;20512;-70
2022/01/03 21:10:42;;;;;;;24.25;5.78;;;;;;;7.41;100.00;100052.34;10141282;28;20059;-70
2022/01/03 21:15:39;;;;;;;23.27;6.03;;;;;;;7.43;100.00;100048.22;10130463;28;20058;-69
2022/01/03 21:20:35;;;;;;;24.48;6.20;;;;;;;7.41;100.00;100045.00;10143470;28;20104;-72
2022/01/03 21:25:32;;;;;;;28.70;6.90;;;;;;;7.43;100.00;100033.81;10139989;28;20070;-66
2022/01/03 21:30:33;;;;;;;25.83;6.47;;;;;;;7.45;100.00;100037.00;10148936;28;20046;-66
2022/01/03 21:35:30;;;;;;;19.98;5.53;;;;;;;7.48;100.00;100041.84;10139778;28;20046;-66
2022/01/03 21:40:26;;;;;;;28.35;6.10;;;;;;;7.46;100.00;100022.28;10136905;28;20062;-66
2022/01/03 21:45:26;;;;;;;20.52;5.90;;;;;;;7.44;100.00;100029.97;10132267;28;20071;-66
2022/01/03 21:50:24;;;;;;;30.67;7.18;;;;;;;7.46;100.00;100016.84;10129935;28;20048;-66
2022/01/03 21:55:21;;;;;;;24.25;6.00;;;;;;;7.44;100.00;100029.97;9946417;28;20049;-66
2022/01/03 22:00:18;;;;;;;16.80;5.70;;;;;;;7.40;100.00;100012.66;10131199;28;20100;-66
2022/01/03 22:05:15;;;;;;;25.38;6.78;;;;;;;7.35;100.00;100006.22;10130542;28;20555;-66
2022/01/03 22:10:13;;;;;;;20.38;6.72;;;;;;;7.35;100.00;100000.78;10142882;28;20047;-66
2022/01/03 22:15:11;;;;;;;21.70;5.32;;;;;;;7.30;100.00;100009.09;10138365;28;20480;-64
2022/01/03 22:20:09;;;;;;;26.48;5.63;;;;;;;7.29;100.00;100006.72;10133614;28;20046;-65
2022/01/03 22:25:06;;;;;;;22.90;6.50;;;;;;;7.27;100.00;99998.06;10137421;28;20054;-65
2022/01/03 22:30:04;;;;;;;19.55;5.13;;;;;;;7.22;100.00;100001.72;10141457;28;20050;-64
2022/01/03 22:35:01;;;;;;;22.73;5.05;;;;;;;7.22;100.00;99995.47;10123324;28;20084;-64
2022/01/03 22:39:57;;;;;;;17.90;4.20;;;;;;;7.26;100.00;99989.06;10142906;28;20164;-65
2022/01/03 22:44:54;;;;;;;17.63;4.78;;;;;;;7.24;100.00;99977.75;10146015;28;20088;-64
2022/01/03 22:49:50;;;;;;;24.98;6.25;;;;;;;7.23;100.00;99965.25;10152258;28;20047;-64
2022/01/03 22:54:47;;;;;;;25.02;4.72;;;;;;;7.15;100.00;99971.47;10140872;28;20129;-64
2022/01/03 22:59:43;;;;;;;20.42;4.88;;;;;;;7.15;100.00;99964.09;10158979;28;20073;-64
2022/01/03 23:04:40;;;;;;;16.55;5.25;;;;;;;7.16;100.00;99954.03;10146178;28;20054;-65
2022/01/03 23:09:36;;;;;;;23.60;5.05;;;;;;;7.22;100.00;99950.06;10153332;28;20050;-64
2022/01/03 23:14:33;;;;;;;18.70;4.47;;;;;;;7.22;100.00;99946.50;10150277;28;20038;-64